Time;durP1;ratioP1;P1;durP2;ratioP2;P2;SDS_P1;SDS_P2;PMS_P1;PMS_P2;Temp;Humidity;BMP_temperature;BMP_pressure;BME280_temperature;BME280_humidity;BME280_pressure;Samples;Min_cycle;Max_cycle;Signal;HPM_P1;HPM_P2
2024/01/20 00:00:15;;;;;;;19.10;12.00;;;;;;;-0.46;72.76;99298.73;107151;1262;68693;-39
2024/01/20 00:02:42;;;;;;;19.10;11.10;;;;;;;-0.48;72.57;99304.30;107213;1262;71432;-39
2024/01/20 00:05:11;;;;;;;14.00;8.50;;;;;;;-0.47;72.41;99305.98;107198;1257;60325;-39
2024/01/20 00:07:40;;;;;;;18.80;11.30;;;;;;;-0.52;72.47;99311.86;107172;1258;60416;-39
2024/01/20 00:10:11;;;;;;;19.20;12.10;;;;;;;-0.56;72.72;99312.52;107163;1257;73846;-39
2024/01/20 00:12:40;;;;;;;19.40;12.10;;;;;;;-0.61;72.78;99313.80;107178;1257;66236;-39
2024/01/20 00:15:09;;;;;;;20.70;11.80;;;;;;;-0.64;72.81;99311.57;107211;1257;72036;-39
2024/01/20 00:17:37;;;;;;;18.50;12.10;;;;;;;-0.69;72.68;99313.06;107111;1260;60540;-39
2024/01/20 00:20:07;;;;;;;19.80;12.20;;;;;;;-0.76;72.82;99312.61;107169;1259;60318;-39
2024/01/20 00:22:35;;;;;;;20.40;10.70;;;;;;;-0.78;72.70;99316.05;107199;1262;72908;-39
2024/01/20 00:25:04;;;;;;;15.90;10.20;;;;;;;-0.73;72.67;99326.80;107141;1262;67106;-39
2024/01/20 00:27:31;;;;;;;20.80;11.50;;;;;;;-0.73;72.92;99335.31;107139;1257;72514;-39
2024/01/20 00:29:59;;;;;;;18.30;10.90;;;;;;;-0.75;72.94;99348.27;107261;1263;60551;-39
2024/01/20 00:32:28;;;;;;;21.50;12.30;;;;;;;-0.77;73.09;99346.27;107082;1258;60376;-39
2024/01/20 00:34:57;;;;;;;19.60;12.10;;;;;;;-0.76;73.43;99342.31;107078;1258;73840;-39
2024/01/20 00:37:36;;;;;;;20.00;11.90;;;;;;;-0.73;73.27;99344.53;107154;1262;68546;-39
2024/01/20 00:40:05;;;;;;;19.10;11.30;;;;;;;-0.74;73.47;99350.71;107161;1262;72696;-39
2024/01/20 00:42:32;;;;;;;19.70;11.00;;;;;;;-0.69;73.34;99354.05;107207;1262;60186;-39
2024/01/20 00:45:00;;;;;;;18.30;11.60;;;;;;;-0.65;73.17;99351.23;107141;1258;60974;-39
2024/01/20 00:47:28;;;;;;;20.30;11.40;;;;;;;-0.62;73.27;99352.25;107146;1257;72591;-39
2024/01/20 00:49:55;;;;;;;19.70;12.20;;;;;;;-0.62;73.46;99348.27;107185;1258;68669;-39
2024/01/20 00:52:23;;;;;;;19.30;10.50;;;;;;;-0.64;73.60;99346.17;107079;1257;72514;-39
2024/01/20 00:54:51;;;;;;;17.30;10.50;;;;;;;-0.67;72.86;99349.29;107119;1258;176059;-39
2024/01/20 00:59:51;;;;;;;19.40;11.20;;;;;;;-0.75;72.23;99341.24;104072;1292;613257;-40
2024/01/20 01:02:18;;;;;;;19.70;10.40;;;;;;;-0.74;71.89;99347.40;106655;1266;59142;-40
2024/01/20 01:04:47;;;;;;;23.10;12.20;;;;;;;-0.69;71.55;99347.08;106731;1267;60154;-40
2024/01/20 01:07:13;;;;;;;18.60;10.90;;;;;;;-0.70;71.72;99341.98;106744;1268;72790;-40
2024/01/20 01:09:42;;;;;;;21.30;10.90;;;;;;;-0.71;71.95;99351.89;106786;1269;69359;-38
2024/01/20 01:12:10;;;;;;;22.40;12.30;;;;;;;-0.72;71.89;99351.69;106671;1268;138765;-38
2024/01/20 01:14:37;;;;;;;22.30;12.50;;;;;;;-0.74;72.03;99347.90;106856;1264;59228;-38
2024/01/20 01:17:04;;;;;;;23.50;11.70;;;;;;;-0.75;71.90;99350.25;106861;1267;60075;-38
2024/01/20 01:19:30;;;;;;;22.30;11.80;;;;;;;-0.77;71.74;99352.07;106845;1264;72004;-38
2024/01/20 01:21:58;;;;;;;23.50;12.80;;;;;;;-0.79;71.89;99352.53;106866;1264;69391;-39
2024/01/20 01:24:24;;;;;;;24.00;12.10;;;;;;;-0.80;71.75;99350.78;106833;1267;73151;-39
2024/01/20 01:26:51;;;;;;;20.70;11.60;;;;;;;-0.74;71.62;99354.38;106837;1264;59694;-39
2024/01/20 01:29:18;;;;;;;22.70;12.70;;;;;;;-0.68;71.65;99360.70;106831;1262;60107;-38
2024/01/20 01:31:46;;;;;;;18.90;11.60;;;;;;;-0.71;71.61;99364.36;106879;1267;72272;-39
2024/01/20 01:34:13;;;;;;;21.10;12.30;;;;;;;-0.76;71.77;99366.55;106784;1267;69246;-39
2024/01/20 01:36:40;;;;;;;22.60;12.70;;;;;;;-0.78;71.88;99374.83;106771;1267;72454;-40
2024/01/20 01:39:06;;;;;;;21.30;12.80;;;;;;;-0.81;71.97;99380.34;106738;1263;59610;-39
2024/01/20 01:41:33;;;;;;;24.20;12.60;;;;;;;-0.83;72.08;99387.13;106932;1263;60255;-39
2024/01/20 01:43:59;;;;;;;22.10;12.00;;;;;;;-0.84;72.23;99392.09;106882;1263;73443;-39
2024/01/20 01:46:26;;;;;;;24.10;12.50;;;;;;;-0.84;72.04;99393.73;106849;1266;69097;-39
2024/01/20 01:48:53;;;;;;;22.90;12.00;;;;;;;-0.79;72.20;99393.83;106877;1264;73150;-39
2024/01/20 01:51:19;;;;;;;18.80;12.00;;;;;;;-0.71;71.99;99395.34;106852;1267;59918;-39
2024/01/20 01:53:47;;;;;;;21.80;11.90;;;;;;;-0.66;72.26;99400.44;106839;1263;59619;-39
2024/01/20 01:56:14;;;;;;;22.90;12.90;;;;;;;-0.64;72.01;99403.35;106714;1264;73478;-39
2024/01/20 01:58:43;;;;;;;28.10;13.70;;;;;;;-0.68;71.50;99410.48;106873;1267;69067;-39
2024/01/20 02:01:10;;;;;;;23.80;13.50;;;;;;;-0.78;71.51;99415.77;106066;1264;1005520;-39
2024/01/20 02:03:37;;;;;;;23.80;13.70;;;;;;;-0.91;71.49;99416.59;106840;1263;59521;-39
2024/01/20 02:06:05;;;;;;;25.30;13.30;;;;;;;-1.01;71.57;99416.81;106771;1263;60787;-39
2024/01/20 02:08:32;;;;;;;22.20;13.00;;;;;;;-1.03;71.50;99418.90;106819;1263;73592;-39
2024/01/20 02:10:59;;;;;;;22.90;13.70;;;;;;;-1.02;71.49;99423.58;106697;1263;69073;-39
2024/01/20 02:13:25;;;;;;;23.50;14.70;;;;;;;-1.09;71.66;99427.58;106804;1264;72109;-40
2024/01/20 02:15:53;;;;;;;27.30;14.60;;;;;;;-1.16;71.75;99436.58;106727;1269;60352;-40
2024/01/20 02:18:23;;;;;;;25.70;14.80;;;;;;;-1.23;72.31;99435.30;106075;1264;1003178;-40
2024/01/20 02:20:50;;;;;;;27.40;15.50;;;;;;;-1.28;72.33;99437.05;106874;1263;74371;-40
2024/01/20 02:23:17;;;;;;;30.70;15.90;;;;;;;-1.31;72.40;99441.30;106855;1264;67879;-40
2024/01/20 02:25:43;;;;;;;27.60;15.30;;;;;;;-1.25;72.64;99437.93;106827;1263;73107;-40
2024/01/20 02:28:10;;;;;;;27.90;15.00;;;;;;;-1.17;72.58;99436.27;106845;1264;59536;-40
2024/01/20 02:30:36;;;;;;;28.20;15.90;;;;;;;-1.16;72.68;99433.14;106859;1263;60445;-40
2024/01/20 02:33:03;;;;;;;29.50;15.50;;;;;;;-1.16;73.00;99438.94;106874;1262;73439;-40
2024/01/20 02:35:30;;;;;;;26.20;15.10;;;;;;;-1.16;72.86;99435.42;106898;1267;69293;-40
2024/01/20 02:37:57;;;;;;;33.30;17.00;;;;;;;-1.18;72.72;99441.39;106820;1264;73262;-40
2024/01/20 02:40:24;;;;;;;28.50;15.40;;;;;;;-1.20;72.68;99448.91;106756;1264;59543;-40
2024/01/20 02:42:50;;;;;;;25.70;15.10;;;;;;;-1.23;72.59;99450.48;106742;1263;60316;-40
2024/01/20 02:45:17;;;;;;;27.40;15.90;;;;;;;-1.19;72.68;99457.98;106848;1267;73783;-40
2024/01/20 02:47:44;;;;;;;27.40;16.30;;;;;;;-1.14;72.52;99460.77;106902;1263;69130;-39
2024/01/20 02:50:11;;;;;;;29.40;16.90;;;;;;;-1.17;72.67;99457.88;106866;1267;70579;-40
2024/01/20 02:52:37;;;;;;;30.80;16.80;;;;;;;-1.21;72.72;99459.60;106860;1263;59833;-40
2024/01/20 02:55:05;;;;;;;26.60;15.70;;;;;;;-1.27;72.80;99461.52;106843;1263;59614;-39
2024/01/20 02:57:31;;;;;;;28.70;16.40;;;;;;;-1.36;72.87;99470.11;106867;1264;71759;-40
2024/01/20 02:59:58;;;;;;;31.10;16.40;;;;;;;-1.43;73.15;99470.05;106891;1263;69201;-40
2024/01/20 03:02:25;;;;;;;26.00;16.10;;;;;;;-1.41;73.25;99476.48;106768;1263;73451;-40
2024/01/20 03:04:52;;;;;;;24.10;15.40;;;;;;;-1.36;73.13;99480.64;106758;1264;59613;-40
2024/01/20 03:07:18;;;;;;;28.10;15.90;;;;;;;-1.37;73.36;99487.67;106893;1263;60221;-40
2024/01/20 03:09:45;;;;;;;29.50;17.40;;;;;;;-1.40;73.51;99485.29;106888;1267;73718;-40
2024/01/20 03:15:06;;;;;;;31.00;17.90;;;;;;;-1.43;73.80;99492.34;107885;1270;71607;-39
2024/01/20 03:17:33;;;;;;;22.20;12.90;;;;;;;-1.41;74.09;99499.77;106937;1273;59622;-39
2024/01/20 03:20:00;;;;;;;29.00;16.70;;;;;;;-1.37;73.92;99495.47;105282;1274;1003302;-39
2024/01/20 03:22:27;;;;;;;27.60;15.90;;;;;;;-1.25;73.61;99497.63;106193;1273;73586;-40
2024/01/20 03:24:53;;;;;;;28.50;16.80;;;;;;;-1.16;73.54;99499.20;106158;1274;69031;-40
2024/01/20 03:27:20;;;;;;;30.70;17.30;;;;;;;-1.15;73.59;99506.27;106154;1277;73326;-39
2024/01/20 03:29:46;;;;;;;29.80;16.90;;;;;;;-1.15;73.33;99511.25;106148;1274;59639;-39
2024/01/20 03:32:13;;;;;;;31.70;17.90;;;;;;;-1.16;73.48;99511.02;106189;1273;60380;-39
2024/01/20 03:34:40;;;;;;;30.00;17.40;;;;;;;-1.17;73.42;99512.67;106238;1273;73466;-39
2024/01/20 03:37:07;;;;;;;32.80;17.70;;;;;;;-1.20;73.28;99516.62;106256;1274;69239;-39
2024/01/20 03:39:34;;;;;;;35.60;17.80;;;;;;;-1.23;73.43;99517.55;105400;1274;1003469;-39
2024/01/20 03:42:01;;;;;;;29.00;16.50;;;;;;;-1.19;73.59;99520.08;106160;1278;61205;-39
2024/01/20 03:44:28;;;;;;;32.60;17.60;;;;;;;-1.10;73.46;99516.23;106253;1273;60260;-39
2024/01/20 03:46:55;;;;;;;31.40;17.10;;;;;;;-1.10;73.36;99520.95;106236;1274;73691;-40
2024/01/20 03:49:21;;;;;;;29.70;17.50;;;;;;;-1.12;73.44;99524.55;106208;1273;69348;-40
2024/01/20 03:51:49;;;;;;;35.80;18.60;;;;;;;-1.13;73.62;99525.41;106172;1274;73265;-39
2024/01/20 03:54:15;;;;;;;33.80;18.20;;;;;;;-1.14;73.38;99532.27;106152;1273;59692;-39
2024/01/20 03:56:45;;;;;;;28.00;17.00;;;;;;;-1.20;73.04;99542.01;106228;1274;60432;-40
2024/01/20 03:59:12;;;;;;;28.90;16.20;;;;;;;-1.33;73.20;99537.41;106231;1273;72188;-40
2024/01/20 04:01:39;;;;;;;28.80;15.10;;;;;;;-1.28;72.83;99549.56;106213;1277;69146;-39
2024/01/20 04:04:06;;;;;;;32.80;17.60;;;;;;;-1.25;73.01;99551.02;106202;1273;72767;-39
2024/01/20 04:06:33;;;;;;;31.00;17.70;;;;;;;-1.28;73.36;99553.02;106286;1273;59715;-40
2024/01/20 04:08:59;;;;;;;33.70;18.30;;;;;;;-1.35;73.49;99559.23;105470;1275;1003079;-40
2024/01/20 04:11:26;;;;;;;29.50;17.90;;;;;;;-1.39;73.52;99558.73;106272;1273;59560;-40
2024/01/20 04:13:53;;;;;;;32.00;17.30;;;;;;;-1.40;73.65;99564.38;106213;1274;68163;-40
2024/01/20 04:16:19;;;;;;;29.50;16.20;;;;;;;-1.41;73.57;99572.37;106177;1274;73282;-39
2024/01/20 04:18:46;;;;;;;26.10;15.60;;;;;;;-1.38;73.42;99572.23;106103;1274;60444;-39
2024/01/20 04:21:13;;;;;;;27.50;14.50;;;;;;;-1.29;73.07;99580.00;106144;1273;60148;-39
2024/01/20 04:23:39;;;;;;;25.40;15.70;;;;;;;-1.29;73.12;99582.91;106228;1274;74001;-39
2024/01/20 04:26:06;;;;;;;28.30;15.90;;;;;;;-1.33;72.66;99592.57;106140;1273;69199;-39
2024/01/20 04:28:32;;;;;;;30.70;16.10;;;;;;;-1.37;72.74;99594.45;106094;1273;73157;-40
2024/01/20 04:30:59;;;;;;;29.70;16.20;;;;;;;-1.42;72.27;99606.61;106196;1273;59601;-40
2024/01/20 04:33:26;;;;;;;26.00;15.20;;;;;;;-1.49;72.29;99612.45;105506;1273;1003343;-40
2024/01/20 04:35:52;;;;;;;27.80;15.80;;;;;;;-1.55;72.22;99616.58;106242;1273;73541;-40
2024/01/20 04:38:19;;;;;;;26.70;14.50;;;;;;;-1.57;72.41;99615.62;106240;1273;69272;-40
2024/01/20 04:40:46;;;;;;;24.50;14.40;;;;;;;-1.48;72.56;99616.01;106194;1273;73243;-39
2024/01/20 04:43:12;;;;;;;26.30;13.60;;;;;;;-1.40;72.29;99620.42;106156;1273;59773;-40
2024/01/20 04:45:39;;;;;;;23.40;14.20;;;;;;;-1.40;72.18;99621.60;106206;1274;59690;-40
2024/01/20 04:48:06;;;;;;;23.80;13.30;;;;;;;-1.42;71.90;99621.14;106257;1273;73675;-39
2024/01/20 04:50:33;;;;;;;24.80;13.70;;;;;;;-1.44;71.82;99626.08;106219;1273;69134;-40
2024/01/20 04:52:59;;;;;;;23.70;14.50;;;;;;;-1.48;71.63;99628.39;106127;1276;73271;-39
2024/01/20 04:55:26;;;;;;;24.10;14.00;;;;;;;-1.48;71.82;99629.19;106188;1273;59592;-40
2024/01/20 04:57:53;;;;;;;23.20;13.80;;;;;;;-1.45;71.83;99635.28;106185;1273;60132;-40
2024/01/20 05:00:20;;;;;;;27.00;14.10;;;;;;;-1.48;71.42;99642.95;106205;1273;71148;-40
2024/01/20 05:02:46;;;;;;;20.80;12.60;;;;;;;-1.47;71.20;99656.09;105469;1273;1003772;-40
2024/01/20 05:05:14;;;;;;;26.40;14.20;;;;;;;-1.47;70.78;99663.11;106183;1273;72876;-40
2024/01/20 05:07:41;;;;;;;24.60;13.90;;;;;;;-1.54;70.87;99665.38;106183;1273;61046;-39
2024/01/20 05:10:08;;;;;;;24.80;13.30;;;;;;;-1.61;70.81;99665.77;106286;1273;60368;-39
2024/01/20 05:12:35;;;;;;;27.90;13.90;;;;;;;-1.68;70.69;99670.06;106224;1273;73891;-39
2024/01/20 05:15:01;;;;;;;23.70;14.40;;;;;;;-1.76;70.77;99674.86;106203;1273;69261;-40
2024/01/20 05:17:28;;;;;;;22.10;12.90;;;;;;;-1.83;71.02;99682.23;106154;1273;73154;-40
2024/01/20 05:19:55;;;;;;;23.10;13.30;;;;;;;-1.86;71.08;99685.84;105382;1273;1015995;-39
2024/01/20 05:22:22;;;;;;;18.50;12.00;;;;;;;-1.81;70.88;99683.17;106110;1273;60361;-40
2024/01/20 05:24:49;;;;;;;24.70;13.10;;;;;;;-1.84;70.75;99688.06;106128;1273;74478;-39
2024/01/20 05:27:17;;;;;;;24.90;13.30;;;;;;;-1.89;70.91;99694.62;106140;1273;69187;-40
2024/01/20 05:29:43;;;;;;;21.50;12.90;;;;;;;-1.95;71.11;99700.69;105450;1273;1003084;-39
2024/01/20 05:32:10;;;;;;;25.30;14.10;;;;;;;-2.00;70.95;99704.89;106257;1274;60413;-40
2024/01/20 05:34:37;;;;;;;27.70;14.00;;;;;;;-2.06;71.25;99702.62;106204;1274;60538;-39
2024/01/20 05:37:04;;;;;;;26.70;13.90;;;;;;;-2.11;71.15;99704.33;106294;1273;74273;-39
2024/01/20 05:39:30;;;;;;;21.90;12.50;;;;;;;-2.15;71.27;99705.13;106204;1274;69408;-40
2024/01/20 05:41:57;;;;;;;26.30;12.70;;;;;;;-2.11;71.35;99708.69;106195;1273;73343;-40
2024/01/20 05:44:25;;;;;;;23.40;13.20;;;;;;;-2.07;71.42;99711.43;106182;1277;60380;-39
2024/01/20 05:46:52;;;;;;;21.90;12.90;;;;;;;-2.10;71.50;99713.79;106253;1274;60514;-40
2024/01/20 05:49:18;;;;;;;25.50;13.60;;;;;;;-2.11;71.55;99714.41;106203;1273;74467;-40
2024/01/20 05:51:45;;;;;;;24.00;14.20;;;;;;;-2.11;71.94;99717.55;106186;1274;69172;-39
2024/01/20 05:54:12;;;;;;;27.60;14.50;;;;;;;-2.12;71.71;99722.97;106181;1273;72135;-39
2024/01/20 05:56:38;;;;;;;24.90;13.80;;;;;;;-2.15;71.74;99730.68;106190;1273;60794;-40
2024/01/20 05:59:05;;;;;;;25.20;14.10;;;;;;;-2.11;71.72;99727.75;106149;1273;60087;-40
2024/01/20 06:01:32;;;;;;;27.90;14.40;;;;;;;-2.06;71.25;99736.36;105459;1276;1003547;-40
2024/01/20 06:03:58;;;;;;;26.60;14.50;;;;;;;-2.07;71.62;99744.85;106185;1276;68203;-40
2024/01/20 06:06:26;;;;;;;29.20;14.90;;;;;;;-2.07;71.72;99751.98;106209;1273;73378;-40
2024/01/20 06:08:52;;;;;;;23.00;13.30;;;;;;;-2.08;71.68;99756.34;106131;1273;60740;-40
2024/01/20 06:11:19;;;;;;;25.40;14.00;;;;;;;-2.09;71.69;99757.09;106136;1275;59588;-40
2024/01/20 06:13:46;;;;;;;28.30;14.80;;;;;;;-2.12;71.81;99759.52;106130;1273;74551;-40
2024/01/20 06:16:12;;;;;;;26.30;14.10;;;;;;;-2.14;71.63;99767.13;106157;1273;69121;-40
2024/01/20 06:18:39;;;;;;;25.10;13.40;;;;;;;-2.15;71.74;99766.64;106216;1273;73045;-40
2024/01/20 06:21:06;;;;;;;21.30;13.10;;;;;;;-2.10;71.42;99768.39;106259;1274;61340;-40
2024/01/20 06:23:34;;;;;;;24.80;13.80;;;;;;;-2.06;71.29;99769.13;106229;1273;60536;-40
2024/01/20 06:26:00;;;;;;;24.70;13.80;;;;;;;-2.06;71.17;99772.27;105443;1273;1003646;-40
2024/01/20 06:28:27;;;;;;;25.30;14.10;;;;;;;-2.07;71.26;99773.17;106216;1273;69184;-40
2024/01/20 06:30:54;;;;;;;24.10;13.80;;;;;;;-2.09;71.29;99776.85;106181;1274;73161;-40
2024/01/20 06:33:21;;;;;;;23.40;13.10;;;;;;;-2.09;71.18;99780.95;106163;1274;60378;-40
2024/01/20 06:35:47;;;;;;;24.50;13.70;;;;;;;-2.10;70.86;99785.45;106270;1274;60432;-40
2024/01/20 06:38:15;;;;;;;28.40;13.50;;;;;;;-2.16;70.60;99786.88;106217;1273;74436;-40
2024/01/20 06:40:41;;;;;;;21.90;12.70;;;;;;;-2.19;70.38;99789.27;106204;1273;69372;-40
2024/01/20 06:43:09;;;;;;;22.40;13.20;;;;;;;-2.21;70.32;99787.04;106225;1274;72175;-40
2024/01/20 06:45:36;;;;;;;25.30;13.80;;;;;;;-2.25;70.34;99793.88;106086;1273;60435;-40
2024/01/20 06:48:04;;;;;;;24.10;13.20;;;;;;;-2.26;70.76;99800.63;106229;1273;60496;-40
2024/01/20 06:50:31;;;;;;;22.60;12.80;;;;;;;-2.23;70.92;99802.98;106147;1275;73979;-40
2024/01/20 06:52:58;;;;;;;23.40;12.40;;;;;;;-2.17;71.21;99808.97;106094;1276;69024;-40
2024/01/20 06:55:25;;;;;;;21.00;11.80;;;;;;;-2.11;70.96;99813.27;106095;1273;73124;-40
2024/01/20 06:57:51;;;;;;;24.90;12.50;;;;;;;-2.10;70.54;99813.12;106123;1274;60586;-42
2024/01/20 07:00:18;;;;;;;20.90;11.40;;;;;;;-2.09;69.65;99813.82;106170;1273;60431;-41
2024/01/20 07:02:45;;;;;;;20.50;10.90;;;;;;;-2.12;69.38;99807.17;106247;1273;73121;-41
2024/01/20 07:05:12;;;;;;;20.60;11.70;;;;;;;-2.09;69.60;99819.86;106237;1274;69848;-40
2024/01/20 07:07:38;;;;;;;21.90;11.20;;;;;;;-2.14;69.64;99822.05;106233;1273;72938;-40
2024/01/20 07:10:08;;;;;;;20.50;12.00;;;;;;;-2.17;69.83;99820.49;106197;1273;60606;-40
2024/01/20 07:12:36;;;;;;;22.70;11.90;;;;;;;-2.23;69.75;99826.98;106295;1273;60107;-40
2024/01/20 07:15:05;;;;;;;20.80;11.70;;;;;;;-2.25;70.02;99828.63;106206;1273;74451;-41
2024/01/20 07:17:32;;;;;;;24.50;11.60;;;;;;;-2.26;70.20;99832.86;106259;1273;68960;-40
2024/01/20 07:19:59;;;;;;;22.50;12.50;;;;;;;-2.23;70.22;99831.48;106212;1273;72735;-40
2024/01/20 07:22:26;;;;;;;22.30;11.90;;;;;;;-2.16;70.10;99837.08;106246;1273;60368;-40
2024/01/20 07:24:54;;;;;;;19.90;12.40;;;;;;;-2.16;70.25;99837.92;106222;1273;60405;-40
2024/01/20 07:27:21;;;;;;;21.30;12.00;;;;;;;-2.14;70.45;99837.35;106220;1274;74308;-40
2024/01/20 07:29:47;;;;;;;20.00;11.70;;;;;;;-2.11;70.19;99841.91;106207;1273;69127;-40
2024/01/20 07:32:14;;;;;;;23.00;11.10;;;;;;;-2.10;69.87;99843.09;106224;1274;73235;-40
2024/01/20 07:34:41;;;;;;;22.60;11.00;;;;;;;-2.11;69.66;99845.84;106162;1273;60351;-41
2024/01/20 07:37:08;;;;;;;22.70;10.80;;;;;;;-2.13;69.96;99842.93;106218;1276;60470;-40
2024/01/20 07:39:34;;;;;;;19.70;11.30;;;;;;;-2.11;69.79;99843.72;106220;1275;74341;-40
2024/01/20 07:42:01;;;;;;;23.30;11.80;;;;;;;-2.05;69.65;99846.17;106227;1273;68797;-40
2024/01/20 07:44:28;;;;;;;17.90;10.70;;;;;;;-1.96;69.58;99844.05;106209;1273;70486;-40
2024/01/20 07:46:58;;;;;;;18.80;10.00;;;;;;;-1.92;69.49;99844.63;106215;1273;60379;-40
2024/01/20 07:49:24;;;;;;;21.90;11.40;;;;;;;-1.93;69.13;99845.21;106239;1273;60589;-40
2024/01/20 07:51:51;;;;;;;20.50;10.90;;;;;;;-1.95;69.23;99845.08;106256;1273;74425;-41
2024/01/20 07:54:18;;;;;;;19.60;10.60;;;;;;;-1.96;68.97;99847.19;106220;1273;69413;-40
2024/01/20 07:56:45;;;;;;;21.70;11.40;;;;;;;-1.99;68.80;99857.71;106239;1273;73329;-40
2024/01/20 07:59:11;;;;;;;17.50;10.30;;;;;;;-2.02;69.04;99871.88;105990;1275;59718;-40
2024/01/20 08:01:38;;;;;;;19.50;11.00;;;;;;;-2.02;69.14;99875.94;106228;1273;60808;-40
2024/01/20 08:04:05;;;;;;;23.10;12.10;;;;;;;-2.01;69.05;99877.15;106221;1273;74481;-40
2024/01/20 08:06:32;;;;;;;19.30;10.50;;;;;;;-1.95;68.77;99883.59;106241;1273;67559;-40
2024/01/20 08:08:59;;;;;;;17.20;10.30;;;;;;;-1.88;68.46;99881.05;105870;1274;73254;-40
2024/01/20 08:11:25;;;;;;;17.80;9.70;;;;;;;-1.86;68.81;99880.41;106213;1274;59678;-40
2024/01/20 08:13:52;;;;;;;17.80;10.20;;;;;;;-1.83;68.48;99890.19;106210;1273;60252;-40
2024/01/20 08:16:19;;;;;;;19.80;10.60;;;;;;;-1.82;68.19;99896.71;106234;1274;74578;-40
2024/01/20 08:18:46;;;;;;;17.40;10.10;;;;;;;-1.83;67.95;99899.06;106210;1273;67551;-40
2024/01/20 08:21:13;;;;;;;20.40;10.30;;;;;;;-1.85;67.51;99904.27;105525;1273;1016198;-40
2024/01/20 08:23:40;;;;;;;19.80;10.60;;;;;;;-1.88;67.74;99902.88;106211;1273;60009;-40
2024/01/20 08:26:07;;;;;;;18.20;10.30;;;;;;;-1.90;67.69;99901.79;106456;1270;60528;-40
2024/01/20 08:28:33;;;;;;;19.00;10.20;;;;;;;-1.91;67.71;99900.06;106320;1270;74526;-40
2024/01/20 08:31:00;;;;;;;22.00;9.90;;;;;;;-1.87;67.76;99899.12;106309;1270;69330;-40
2024/01/20 08:33:27;;;;;;;16.50;10.20;;;;;;;-1.77;67.44;99899.55;106356;1270;73164;-41
2024/01/20 08:35:54;;;;;;;15.30;9.80;;;;;;;-1.75;67.38;99906.41;106331;1270;60689;-41
2024/01/20 08:38:21;;;;;;;14.40;8.50;;;;;;;-1.73;67.21;99910.45;106423;1270;60453;-39
2024/01/20 08:40:47;;;;;;;17.30;9.30;;;;;;;-1.74;66.44;99913.32;106361;1270;74413;-40
2024/01/20 08:43:15;;;;;;;14.90;8.60;;;;;;;-1.76;66.42;99917.89;106438;1270;69074;-40
2024/01/20 08:45:42;;;;;;;18.40;8.90;;;;;;;-1.76;66.31;99920.44;106449;1270;72471;-40
2024/01/20 08:48:08;;;;;;;14.40;8.00;;;;;;;-1.77;66.07;99920.97;105686;1270;1003385;-40
2024/01/20 08:50:35;;;;;;;13.50;8.40;;;;;;;-1.79;65.94;99921.87;106415;1270;60477;-39
2024/01/20 08:53:02;;;;;;;14.10;7.50;;;;;;;-1.84;65.69;99921.60;106451;1270;73209;-39
2024/01/20 08:55:29;;;;;;;16.30;7.70;;;;;;;-1.90;64.58;99921.01;106465;1271;68668;-40
2024/01/20 08:57:56;;;;;;;12.20;7.10;;;;;;;-1.93;64.50;99921.33;106411;1270;73159;-40
2024/01/20 09:00:23;;;;;;;13.50;7.80;;;;;;;-1.94;64.85;99919.67;106899;1262;60393;-40
2024/01/20 09:02:50;;;;;;;14.40;7.60;;;;;;;-1.93;64.97;99921.95;106855;1262;60378;-40
2024/01/20 09:05:17;;;;;;;16.70;8.00;;;;;;;-1.89;65.31;99916.22;106848;1262;73980;-40
2024/01/20 09:07:44;;;;;;;15.60;7.70;;;;;;;-1.86;64.90;99912.94;106833;1262;69304;-39
2024/01/20 09:10:12;;;;;;;13.40;6.70;;;;;;;-1.79;64.24;99911.08;106831;1262;73144;-39
2024/01/20 09:12:39;;;;;;;12.30;7.30;;;;;;;-1.70;63.78;99908.31;106871;1262;59640;-39
2024/01/20 09:15:07;;;;;;;11.40;6.70;;;;;;;-1.66;64.10;99906.52;106914;1262;60591;-39
2024/01/20 09:17:34;;;;;;;14.50;7.50;;;;;;;-1.62;63.65;99910.40;106936;1262;72629;-40
2024/01/20 09:20:00;;;;;;;15.30;7.30;;;;;;;-1.60;63.73;99914.45;106840;1262;69193;-39
2024/01/20 09:22:29;;;;;;;13.40;7.20;;;;;;;-1.58;63.54;99909.77;106852;1262;73345;-39
2024/01/20 09:24:56;;;;;;;12.50;6.60;;;;;;;-1.57;63.00;99910.67;106841;1262;60415;-39
2024/01/20 09:27:23;;;;;;;11.30;5.80;;;;;;;-1.58;62.48;99909.23;106843;1262;60219;-39
2024/01/20 09:29:50;;;;;;;10.90;6.60;;;;;;;-1.61;62.15;99910.03;106110;1262;1003370;-39
2024/01/20 09:32:17;;;;;;;11.80;7.10;;;;;;;-1.66;61.70;99909.75;106846;1262;67688;-39
2024/01/20 09:34:43;;;;;;;11.90;6.60;;;;;;;-1.69;61.53;99912.84;106861;1263;72732;-40
2024/01/20 09:37:10;;;;;;;13.80;7.30;;;;;;;-1.72;61.38;99916.40;106880;1262;60369;-39
2024/01/20 09:39:38;;;;;;;11.40;7.10;;;;;;;-1.76;61.93;99917.09;106125;1262;1003700;-39
2024/01/20 09:42:05;;;;;;;14.70;7.60;;;;;;;-1.80;62.14;99915.54;106842;1262;74306;-39
2024/01/20 09:44:32;;;;;;;13.60;7.30;;;;;;;-1.81;62.22;99914.38;106839;1262;69154;-40
2024/01/20 09:46:59;;;;;;;13.60;7.10;;;;;;;-1.82;62.45;99921.08;106807;1262;72018;-40
2024/01/20 09:49:26;;;;;;;15.30;7.80;;;;;;;-1.81;62.60;99922.67;106866;1262;60323;-39
2024/01/20 09:51:53;;;;;;;13.20;7.50;;;;;;;-1.79;62.85;99921.48;106893;1262;60533;-39
2024/01/20 09:54:20;;;;;;;13.50;6.70;;;;;;;-1.80;62.50;99918.20;106775;1262;74191;-39
2024/01/20 09:56:47;;;;;;;13.30;7.40;;;;;;;-1.82;62.44;99922.98;106903;1262;69344;-40
2024/01/20 09:59:14;;;;;;;10.50;6.50;;;;;;;-1.84;62.21;99930.80;106695;1263;72801;-41
2024/01/20 10:01:41;;;;;;;11.40;6.30;;;;;;;-1.86;62.20;99930.48;106721;1262;60353;-41
2024/01/20 10:04:08;;;;;;;12.20;6.60;;;;;;;-1.87;61.95;99929.77;106771;1264;60471;-39
2024/01/20 10:06:35;;;;;;;15.30;6.80;;;;;;;-1.88;61.88;99928.65;106766;1265;74336;-40
2024/01/20 10:09:03;;;;;;;12.00;7.10;;;;;;;-1.87;61.89;99930.20;106822;1264;69360;-39
2024/01/20 10:11:30;;;;;;;11.60;6.40;;;;;;;-1.87;61.81;99922.17;106115;1263;1003354;-39
2024/01/20 10:13:57;;;;;;;12.80;6.00;;;;;;;-1.87;62.21;99922.61;106088;1264;1003290;-39
2024/01/20 10:16:23;;;;;;;11.00;6.40;;;;;;;-1.86;61.55;99920.27;106851;1264;59827;-39
2024/01/20 10:18:50;;;;;;;10.30;6.20;;;;;;;-1.87;61.73;99921.38;106842;1263;74235;-39
2024/01/20 10:21:17;;;;;;;13.10;6.20;;;;;;;-1.85;61.72;99922.30;106867;1264;68596;-39
2024/01/20 10:23:44;;;;;;;12.30;6.10;;;;;;;-1.82;61.95;99918.58;106802;1263;72799;-39
2024/01/20 10:26:11;;;;;;;11.90;6.70;;;;;;;-1.80;61.94;99915.02;106863;1263;60540;-39
2024/01/20 10:28:37;;;;;;;9.80;5.30;;;;;;;-1.77;61.89;99911.92;106835;1262;60555;-39
2024/01/20 10:31:08;;;;;;;7.70;4.90;;;;;;;-1.73;61.39;99912.56;106850;1265;73664;-39
2024/01/20 10:33:35;;;;;;;9.10;5.20;;;;;;;-1.73;60.78;99910.81;106847;1264;68758;-39
2024/01/20 10:36:03;;;;;;;9.00;5.20;;;;;;;-1.72;60.95;99914.70;106881;1263;73221;-39
2024/01/20 10:38:30;;;;;;;12.80;5.90;;;;;;;-1.68;60.90;99907.90;106851;1263;60385;-39
2024/01/20 10:40:58;;;;;;;10.10;5.50;;;;;;;-1.66;60.38;99910.88;106711;1264;60470;-39
2024/01/20 10:43:26;;;;;;;8.70;5.00;;;;;;;-1.64;60.35;99916.82;106773;1269;74206;-39
2024/01/20 10:46:03;;;;;;;9.90;5.40;;;;;;;-1.64;60.52;99915.45;106886;1264;68751;-39
2024/01/20 10:48:33;;;;;;;9.90;5.60;;;;;;;-1.63;59.68;99922.45;106817;1264;72692;-39
2024/01/20 10:51:00;;;;;;;9.30;5.00;;;;;;;-1.65;59.98;99918.95;106839;1263;60475;-39
2024/01/20 10:53:28;;;;;;;11.70;5.40;;;;;;;-1.66;59.96;99925.02;106777;1262;60415;-39
2024/01/20 10:55:55;;;;;;;8.50;5.10;;;;;;;-1.67;60.15;99922.20;106837;1262;73768;-39
2024/01/20 10:58:23;;;;;;;9.40;5.50;;;;;;;-1.67;59.66;99921.61;106795;1269;68635;-39
2024/01/20 11:00:50;;;;;;;10.00;5.10;;;;;;;-1.69;59.34;99915.80;106780;1263;72699;-40
2024/01/20 11:03:17;;;;;;;8.50;5.10;;;;;;;-1.69;59.63;99916.50;106796;1267;60383;-40
2024/01/20 11:05:48;;;;;;;7.80;5.00;;;;;;;-1.66;59.81;99916.20;106759;1264;60540;-40
2024/01/20 11:08:22;;;;;;;10.30;5.60;;;;;;;-1.63;60.06;99915.34;106847;1263;73099;-40
2024/01/20 11:10:51;;;;;;;8.20;5.20;;;;;;;-1.61;60.06;99915.81;106111;1263;1002558;-40
2024/01/20 11:13:17;;;;;;;8.30;5.30;;;;;;;-1.59;59.81;99913.69;106855;1264;72781;-40